Nashville, TN

11:09 AM CDT on October 30, 2014 (GMT -0500)
Bates Nursery | Change Station
CLOSE
Current Station
Personal Weather Station
Location: Nashville, TN
Elevation: 459 ft
Nearby Weather Stations
Active Advisory: Special Statement

Elev 459 ft 36.25 °N, 86.82 °W | Updated 8 seconds ago

Clear
Clear
57.2 °F
Feels Like 57.2 °F
N
3.6
Wind Variable Wind from WSW
Gusts 4.5 mph

Today
High -- | Low -- °F
--% Chance of Precip.
Yesterday
High -- | Low -- °F
Precip. -- in
7:07 AM 5:53 PM
Waxing Crescent, 45% visible
Pressure 30.17 in
Visibility 10.0 miles
Clouds Few 4000 ft
Dew Point 43 °F
Humidity 58%
Rainfall 0.00 in
Snow Depth Not available.
UV 4 out of 12
Pollen .90 out of 12
Air Quality Not available.
Flu Activity Not available.
METAR KBNA 301553Z 00000KT 10SM FEW040 13/03 A3017 RMK AO2 SLP215 T01280028

More Conditions Fewer Conditions

Pressure 30.17 in
Visibility 10.0 miles
Clouds Few 4000 ft
Dew Point 43 °F
Humidity 58%
Rainfall 0.00 in
Snow Depth Not available.
UV 4 out of 12
Pollen .90 out of 12
Air Quality Not available.
Flu Activity Not available.
METAR KBNA 301553Z 00000KT 10SM FEW040 13/03 A3017 RMK AO2 SLP215 T01280028

More Conditions Fewer Conditions

10-Day Weather Forecast

Almanac

Astronomy

Oct. 30, 2014 Rise Set
Actual Time
Civil Twilight
Nautical Twilight
Astronomical Twilight
Moon
Length of Visible Light
Length of Day
Tomorrow will be .
, % of the Moon is Illuminated

Today's Extremes

State Highs State Lows

Community

WunderPhotos

Upload Photos

1,766,394 photos uploaded!

WunderBlogs® & News

Nearby

Air Quality

  Air Quality AQ Index Pollutant
Not available.

Snow Depth

Station Depth Elevation

Earthquake Activity

City Distance Mag. Time & Date
Minimum magnitude displayed is 2.5.

Coastal Water Temperatures

Place Temperature

Nearby Weather Stations